createdAt,value
2018-03-07T00:00:38.402Z,976.65
2018-03-07T00:01:48.454Z,976.61
2018-03-07T00:02:58.503Z,976.67
2018-03-07T00:04:08.567Z,976.7
2018-03-07T00:05:18.611Z,976.69
2018-03-07T00:06:28.184Z,976.74
2018-03-07T00:07:37.988Z,976.69
2018-03-07T00:08:48.054Z,976.63
2018-03-07T00:09:57.855Z,976.73
2018-03-07T00:11:07.672Z,976.74
2018-03-07T00:12:17.793Z,976.75
2018-03-07T00:13:27.843Z,976.74
2018-03-07T00:14:37.919Z,976.79
2018-03-07T00:15:47.772Z,976.76
2018-03-07T00:16:57.849Z,976.8
2018-03-07T00:18:07.901Z,976.82
2018-03-07T00:19:17.991Z,976.81
2018-03-07T00:20:28.112Z,976.81
2018-03-07T00:21:38.195Z,976.8
2018-03-07T00:22:48.247Z,976.79
2018-03-07T00:23:58.057Z,976.77
2018-03-07T00:25:08.124Z,976.76
2018-03-07T00:26:18.203Z,976.78
2018-03-07T00:27:28.266Z,976.75
2018-03-07T00:28:38.331Z,976.72
2018-03-07T00:29:48.394Z,976.74
2018-03-07T00:30:57.935Z,976.82
2018-03-07T00:32:07.751Z,976.82
2018-03-07T00:33:17.816Z,976.71
2018-03-07T00:34:27.887Z,976.73
2018-03-07T00:35:37.949Z,976.81
2018-03-07T00:36:48.011Z,976.8
2018-03-07T00:37:58.052Z,976.76
2018-03-07T00:39:08.111Z,976.78
2018-03-07T00:40:17.927Z,976.81
2018-03-07T00:41:28.092Z,976.77
2018-03-07T00:42:37.892Z,976.79
2018-03-07T00:43:47.954Z,976.82
2018-03-07T00:44:57.480Z,976.82
2018-03-07T00:46:07.284Z,976.8
2018-03-07T00:47:17.092Z,976.8
2018-03-07T00:48:26.639Z,976.81
2018-03-07T00:49:35.916Z,976.8
2018-03-07T00:50:45.976Z,976.82
2018-03-07T00:51:56.054Z,976.83
2018-03-07T00:53:05.877Z,976.79
2018-03-07T00:54:15.411Z,976.84
2018-03-07T00:55:25.217Z,976.8
2018-03-07T00:56:35.019Z,976.84
2018-03-07T00:57:45.098Z,976.77
2018-03-07T00:58:54.897Z,976.71
2018-03-07T01:00:04.749Z,976.71
2018-03-07T01:01:14.818Z,976.76
2018-03-07T01:02:24.647Z,976.77
2018-03-07T01:03:34.704Z,976.74
2018-03-07T01:04:44.762Z,976.72
2018-03-07T01:05:54.858Z,976.69
2018-03-07T01:07:04.931Z,976.7
2018-03-07T01:08:14.981Z,976.77
2018-03-07T01:09:25.038Z,976.74
2018-03-07T01:10:35.107Z,976.77
2018-03-07T01:11:45.153Z,976.78
2018-03-07T01:12:55.219Z,976.81
2018-03-07T01:14:05.267Z,976.82
2018-03-07T01:15:15.317Z,976.81
2018-03-07T01:16:25.369Z,976.81
2018-03-07T01:17:35.429Z,976.68
2018-03-07T01:18:45.480Z,976.73
2018-03-07T01:19:55.539Z,976.7
2018-03-07T01:21:05.345Z,976.69
2018-03-07T01:22:15.443Z,976.74
2018-03-07T01:23:25.251Z,976.73
2018-03-07T01:24:35.326Z,976.74
2018-03-07T01:25:45.388Z,976.77
2018-03-07T01:26:55.434Z,976.79
2018-03-07T01:28:05.502Z,976.75
2018-03-07T01:29:15.554Z,976.66
2018-03-07T01:30:25.617Z,976.65
2018-03-07T01:31:35.401Z,976.68
2018-03-07T01:32:45.189Z,976.65
2018-03-07T01:33:54.985Z,976.68
2018-03-07T01:35:04.789Z,976.59
2018-03-07T01:36:14.866Z,976.69
2018-03-07T01:37:24.920Z,976.82
2018-03-07T01:38:34.993Z,976.77
2018-03-07T01:39:44.853Z,976.69
2018-03-07T01:40:54.643Z,976.67
2018-03-07T01:42:04.445Z,976.76
2018-03-07T01:43:14.515Z,976.75
2018-03-07T01:44:24.571Z,976.7
2018-03-07T01:45:34.366Z,976.68
2018-03-07T01:46:44.430Z,976.71
2018-03-07T01:47:54.486Z,976.65
2018-03-07T01:49:04.551Z,976.68
2018-03-07T01:50:14.609Z,976.81
2018-03-07T01:51:24.657Z,976.79
2018-03-07T01:52:34.704Z,976.7
2018-03-07T01:53:44.757Z,976.83
2018-03-07T01:54:54.808Z,976.77
2018-03-07T01:56:04.874Z,976.72
2018-03-07T01:57:14.667Z,976.85
2018-03-07T01:58:24.474Z,976.84
2018-03-07T01:59:34.534Z,976.65
2018-03-07T02:00:44.336Z,976.67
2018-03-07T02:01:54.392Z,976.76
2018-03-07T02:03:04.490Z,976.75
2018-03-07T02:04:14.016Z,976.81
2018-03-07T02:05:24.092Z,976.79
2018-03-07T02:06:33.871Z,976.78
2018-03-07T02:07:43.942Z,976.64
2018-03-07T02:08:53.789Z,976.8
2018-03-07T02:10:03.607Z,976.82
2018-03-07T02:11:13.406Z,976.74
2018-03-07T02:12:23.474Z,976.77
2018-03-07T02:13:33.000Z,976.79
2018-03-07T02:14:43.116Z,976.89
2018-03-07T02:15:53.168Z,976.79
2018-03-07T02:17:02.957Z,976.8
2018-03-07T02:18:12.749Z,976.76
2018-03-07T02:19:22.802Z,976.84
2018-03-07T02:20:32.423Z,976.74
2018-03-07T02:21:42.477Z,976.77
2018-03-07T02:22:52.023Z,976.79
2018-03-07T02:24:02.100Z,976.76
2018-03-07T02:25:12.152Z,976.72
2018-03-07T02:26:22.220Z,976.71
2018-03-07T02:27:32.255Z,976.75
2018-03-07T02:28:41.527Z,976.83
2018-03-07T02:29:51.331Z,976.86
2018-03-07T02:31:01.173Z,976.84
2018-03-07T02:32:10.987Z,976.82
2018-03-07T02:33:20.517Z,976.82
2018-03-07T02:34:30.598Z,976.82
2018-03-07T02:35:40.423Z,976.81
2018-03-07T02:36:50.540Z,976.85
2018-03-07T02:38:00.352Z,976.82
2018-03-07T02:39:10.426Z,976.81
2018-03-07T02:40:20.238Z,976.83
2018-03-07T02:41:30.054Z,976.83
2018-03-07T02:42:40.114Z,976.86
2018-03-07T02:43:49.652Z,976.8
2018-03-07T02:44:59.728Z,976.82
2018-03-07T02:46:09.528Z,976.85
2018-03-07T02:47:19.622Z,976.88
2018-03-07T02:48:29.433Z,976.96
2018-03-07T02:49:39.519Z,976.93
2018-03-07T02:50:49.572Z,976.95
2018-03-07T02:51:59.658Z,976.89
2018-03-07T02:53:09.723Z,976.93
2018-03-07T02:54:19.525Z,976.94
2018-03-07T02:55:29.334Z,976.88
2018-03-07T02:56:39.401Z,976.9
2018-03-07T02:57:49.490Z,976.9
2018-03-07T02:58:59.568Z,976.93
2018-03-07T03:00:09.636Z,976.93
2018-03-07T03:01:19.795Z,976.95
2018-03-07T03:02:29.869Z,976.94
2018-03-07T03:03:39.667Z,976.9
2018-03-07T03:04:49.793Z,976.92
2018-03-07T03:05:59.599Z,976.94
2018-03-07T03:07:09.673Z,976.96
2018-03-07T03:08:19.770Z,977
2018-03-07T03:39:52.106Z,977.01
2018-03-07T03:41:02.045Z,977.01
2018-03-07T03:42:12.099Z,977.01
2018-03-07T03:43:21.921Z,976.99
2018-03-07T03:44:31.955Z,977.04
2018-03-07T03:45:42.098Z,977.01
2018-03-07T03:46:52.179Z,977.02
2018-03-07T03:48:01.712Z,977.04
2018-03-07T03:49:11.562Z,977.04
2018-03-07T03:50:21.636Z,977.04
2018-03-07T03:51:31.734Z,977.01
2018-03-07T03:52:41.804Z,976.99
2018-03-07T03:53:51.861Z,977
2018-03-07T03:55:01.924Z,976.98
2018-03-07T03:56:11.995Z,976.99
2018-03-07T03:57:22.066Z,977.02
2018-03-07T03:58:31.873Z,977.05
2018-03-07T03:59:41.405Z,977.02
2018-03-07T04:00:51.207Z,977.1
2018-03-07T04:02:01.258Z,977.11
2018-03-07T04:03:11.109Z,977.12
2018-03-07T04:04:21.174Z,977.14
2018-03-07T04:05:31.037Z,977.17
2018-03-07T04:06:41.114Z,977.17
2018-03-07T04:07:51.162Z,977.14
2018-03-07T04:09:01.269Z,977.14
2018-03-07T04:10:11.317Z,977.12
2018-03-07T04:11:21.367Z,977.12
2018-03-07T04:12:31.403Z,977.12
2018-03-07T04:13:41.196Z,977.14
2018-03-07T04:14:51.263Z,977.14
2018-03-07T04:16:01.056Z,977.16
2018-03-07T04:17:10.849Z,977.16
2018-03-07T04:18:20.897Z,977.2
2018-03-07T04:19:30.174Z,977.24
2018-03-07T04:20:40.027Z,977.19
2018-03-07T04:21:50.079Z,977.19
2018-03-07T04:23:00.170Z,977.2
2018-03-07T04:24:10.221Z,977.23
2018-03-07T04:25:20.284Z,977.18
2018-03-07T04:26:30.446Z,977.19
2018-03-07T04:27:40.538Z,977.18
2018-03-07T04:28:50.593Z,977.18
2018-03-07T04:30:00.647Z,977.17
2018-03-07T04:31:10.462Z,977.18
2018-03-07T04:32:20.519Z,977.23
2018-03-07T04:33:30.576Z,977.23
2018-03-07T04:34:40.640Z,977.26
2018-03-07T04:35:50.704Z,977.26
2018-03-07T04:37:00.740Z,977.27
2018-03-07T04:38:10.527Z,977.26
2018-03-07T04:39:20.055Z,977.25
2018-03-07T04:40:30.116Z,977.33
2018-03-07T04:41:40.003Z,977.28
2018-03-07T04:42:50.105Z,977.27
2018-03-07T04:43:59.957Z,977.25
2018-03-07T04:45:09.728Z,977.26
2018-03-07T04:46:19.778Z,977.26
2018-03-07T04:47:29.837Z,977.23
2018-03-07T04:48:39.639Z,977.24
2018-03-07T04:49:49.479Z,977.28
2018-03-07T04:50:59.003Z,977.26
2018-03-07T04:52:08.786Z,977.29
2018-03-07T04:53:18.858Z,977.33
2018-03-07T04:54:28.397Z,977.35
2018-03-07T04:55:38.244Z,977.3
2018-03-07T04:56:48.028Z,977.33
2018-03-07T04:57:57.828Z,977.33
2018-03-07T04:59:07.624Z,977.28
2018-03-07T05:00:17.439Z,977.27
2018-03-07T05:01:27.619Z,977.35
2018-03-07T05:02:37.702Z,977.39
2018-03-07T05:03:48.193Z,977.38
2018-03-07T05:04:58.254Z,977.33
2018-03-07T05:06:08.055Z,977.39
2018-03-07T05:07:17.903Z,977.38
2018-03-07T05:08:27.711Z,977.36
2018-03-07T05:09:37.774Z,977.34
2018-03-07T05:10:47.589Z,977.38
2018-03-07T05:11:57.672Z,977.36
2018-03-07T05:13:07.197Z,977.38
2018-03-07T05:14:17.413Z,977.39
2018-03-07T05:15:27.485Z,977.47
2018-03-07T05:16:37.532Z,977.41
2018-03-07T05:17:47.332Z,977.42
2018-03-07T05:18:57.390Z,977.53
2018-03-07T05:20:07.445Z,977.45
2018-03-07T05:21:17.510Z,977.42
2018-03-07T05:22:27.571Z,977.52
2018-03-07T05:23:37.636Z,977.55
2018-03-07T05:24:47.480Z,977.46
2018-03-07T05:25:57.300Z,977.48
2018-03-07T05:27:07.367Z,977.57
2018-03-07T05:28:17.448Z,977.59
2018-03-07T05:29:27.505Z,977.49
2018-03-07T05:30:37.606Z,977.44
2018-03-07T05:31:47.667Z,977.56
2018-03-07T05:32:57.699Z,977.6
2018-03-07T05:34:07.764Z,977.6
2018-03-07T05:35:17.321Z,977.54
2018-03-07T05:36:27.144Z,977.65
2018-03-07T05:37:37.202Z,977.6
2018-03-07T05:38:47.264Z,977.56
2018-03-07T05:39:56.828Z,977.62
2018-03-07T05:41:06.885Z,977.61
2018-03-07T05:42:16.679Z,977.61
2018-03-07T05:43:26.727Z,977.57
2018-03-07T05:44:36.778Z,977.6
2018-03-07T05:45:46.898Z,977.69
2018-03-07T05:46:56.964Z,977.62
2018-03-07T05:48:06.516Z,977.54
2018-03-07T05:49:16.314Z,977.54
2018-03-07T05:50:26.374Z,977.61
2018-03-07T05:51:36.435Z,977.65
2018-03-07T05:52:46.247Z,977.6
2018-03-07T05:53:56.312Z,977.65
2018-03-07T05:55:06.379Z,977.68
2018-03-07T05:56:16.186Z,977.7
2018-03-07T05:57:26.035Z,977.67
2018-03-07T05:58:36.094Z,977.7
2018-03-07T05:59:46.167Z,977.75
2018-03-07T06:00:55.982Z,977.73
2018-03-07T06:02:05.794Z,977.73
2018-03-07T06:03:15.851Z,977.72
2018-03-07T06:04:25.911Z,977.71
2018-03-07T06:05:35.712Z,977.8
2018-03-07T06:06:45.775Z,977.77
2018-03-07T06:07:55.843Z,977.75
2018-03-07T06:09:05.952Z,977.82
2018-03-07T06:10:15.752Z,977.82
2018-03-07T06:11:25.804Z,977.81
2018-03-07T06:12:35.607Z,977.81
2018-03-07T06:13:45.671Z,977.83
2018-03-07T06:14:55.734Z,977.91
2018-03-07T06:16:05.810Z,977.9
2018-03-07T06:17:15.863Z,977.93
2018-03-07T06:18:25.923Z,977.89
2018-03-07T06:19:35.719Z,977.96
2018-03-07T06:20:45.828Z,977.97
2018-03-07T06:21:55.616Z,978.01
2018-03-07T06:23:05.407Z,977.98
2018-03-07T06:24:15.475Z,978.03
2018-03-07T06:25:25.550Z,978.05
2018-03-07T06:26:35.606Z,978.03
2018-03-07T06:27:45.150Z,978.09
2018-03-07T06:28:55.235Z,978.11
2018-03-07T06:30:05.301Z,978.1
2018-03-07T06:31:15.119Z,978.09
2018-03-07T06:32:24.984Z,978.18
2018-03-07T06:33:35.050Z,978.19
2018-03-07T06:34:45.099Z,978.17
2018-03-07T06:35:55.156Z,978.11
2018-03-07T06:37:04.713Z,978.24
2018-03-07T06:38:14.799Z,978.31
2018-03-07T06:39:24.868Z,978.18
2018-03-07T06:40:34.395Z,978.1
2018-03-07T06:41:44.458Z,978.19
2018-03-07T06:42:54.521Z,978.3
2018-03-07T06:44:04.318Z,978.32
2018-03-07T06:45:14.379Z,978.23
2018-03-07T06:46:24.206Z,978.23
2018-03-07T06:47:34.352Z,978.32
2018-03-07T06:48:44.428Z,978.37
2018-03-07T06:49:54.236Z,978.29
2018-03-07T06:51:04.310Z,978.25
2018-03-07T06:52:13.845Z,978.33
2018-03-07T06:53:23.899Z,978.31
2018-03-07T06:54:33.699Z,978.32
2018-03-07T06:55:43.227Z,978.31
2018-03-07T06:56:53.274Z,978.34
2018-03-07T06:58:03.316Z,978.34
2018-03-07T06:59:13.396Z,978.36
2018-03-07T07:00:23.200Z,978.27
2018-03-07T07:01:33.266Z,978.33
2018-03-07T07:02:43.326Z,978.41
2018-03-07T07:03:53.388Z,978.38
2018-03-07T07:05:03.200Z,978.41
2018-03-07T07:06:13.063Z,978.47
2018-03-07T07:07:23.259Z,978.41
2018-03-07T07:08:33.050Z,978.43
2018-03-07T07:09:43.120Z,978.44
2018-03-07T07:10:53.178Z,978.5
2018-03-07T07:12:03.240Z,978.55
2018-03-07T07:13:13.049Z,978.55
2018-03-07T07:14:22.586Z,978.59
2018-03-07T07:15:32.646Z,978.52
2018-03-07T07:16:42.716Z,978.64
2018-03-07T07:17:52.622Z,978.63
2018-03-07T07:19:02.712Z,978.59
2018-03-07T07:20:12.795Z,978.63
2018-03-07T07:21:22.405Z,978.68
2018-03-07T07:22:31.941Z,978.66
2018-03-07T07:23:41.738Z,978.61
2018-03-07T07:24:51.543Z,978.65
2018-03-07T07:26:01.370Z,978.73
2018-03-07T07:27:11.438Z,978.67
2018-03-07T07:28:21.501Z,978.65
2018-03-07T07:29:31.329Z,978.69
2018-03-07T07:30:41.380Z,978.78
2018-03-07T07:31:51.170Z,978.69
2018-03-07T07:33:01.217Z,978.69
2018-03-07T07:34:11.019Z,978.78
2018-03-07T07:35:20.871Z,978.79
2018-03-07T07:36:30.932Z,978.77
2018-03-07T07:37:40.770Z,978.72
2018-03-07T07:38:50.851Z,978.72
2018-03-07T07:40:00.642Z,978.79
2018-03-07T07:41:10.434Z,978.81
2018-03-07T07:42:20.247Z,978.77
2018-03-07T07:43:30.317Z,978.79
2018-03-07T07:44:40.388Z,978.81
2018-03-07T07:45:50.452Z,978.83
2018-03-07T07:47:00.523Z,978.84
2018-03-07T07:48:10.615Z,978.87
2018-03-07T07:49:20.401Z,978.85
2018-03-07T07:50:30.500Z,978.86
2018-03-07T07:51:40.570Z,978.89
2018-03-07T07:52:50.641Z,978.86
2018-03-07T07:54:00.735Z,978.88
2018-03-07T07:55:10.536Z,978.9
2018-03-07T07:56:20.346Z,978.92
2018-03-07T07:57:30.406Z,978.88
2018-03-07T07:58:40.286Z,978.92
2018-03-07T07:59:50.358Z,978.95
2018-03-07T08:01:00.475Z,978.92
2018-03-07T08:02:10.267Z,978.89
2018-03-07T08:03:20.359Z,978.94
2018-03-07T08:04:30.472Z,978.89
2018-03-07T08:05:40.518Z,978.88
2018-03-07T08:06:50.329Z,978.9
2018-03-07T08:08:00.370Z,978.94
2018-03-07T08:09:10.431Z,978.97
2018-03-07T08:10:19.976Z,978.95
2018-03-07T08:11:29.771Z,979
2018-03-07T08:12:39.875Z,978.99
2018-03-07T08:13:49.675Z,979.03
2018-03-07T08:14:59.520Z,979.07
2018-03-07T08:16:09.319Z,979.01
2018-03-07T08:17:19.398Z,979.09
2018-03-07T08:18:29.472Z,979.08
2018-03-07T08:19:39.519Z,979.1
2018-03-07T08:20:49.563Z,979.16
2018-03-07T08:21:59.630Z,979.17
2018-03-07T08:23:09.706Z,979.12
2018-03-07T08:24:19.786Z,979.04
2018-03-07T08:25:29.885Z,979.07
2018-03-07T08:26:39.691Z,979.08
2018-03-07T08:27:49.741Z,979.15
2018-03-07T08:28:59.799Z,979.08
2018-03-07T08:30:09.659Z,979.11
2018-03-07T08:31:19.741Z,979.14
2018-03-07T08:32:29.782Z,979.11
2018-03-07T08:33:39.322Z,979.08
2018-03-07T08:34:49.394Z,979.11
2018-03-07T08:35:59.247Z,979.14
2018-03-07T08:37:09.319Z,979.17
2018-03-07T08:38:19.381Z,979.19
2018-03-07T08:39:29.453Z,979.23
2018-03-07T08:40:39.255Z,979.22
2018-03-07T08:41:49.361Z,979.21
2018-03-07T08:42:59.164Z,979.24
2018-03-07T08:44:09.215Z,979.29
2018-03-07T08:45:19.280Z,979.29
2018-03-07T08:46:29.370Z,979.24
2018-03-07T08:47:38.952Z,979.25
2018-03-07T08:48:49.011Z,979.27
2018-03-07T08:49:59.067Z,979.35
2018-03-07T08:51:09.197Z,979.33
2018-03-07T08:52:19.275Z,979.33
2018-03-07T08:53:29.344Z,979.34
2018-03-07T08:54:39.388Z,979.39
2018-03-07T08:55:49.598Z,979.38
2018-03-07T08:56:59.410Z,979.37
2018-03-07T08:58:09.471Z,979.36
2018-03-07T08:59:19.531Z,979.33
2018-03-07T09:00:29.594Z,979.39
2018-03-07T09:01:39.796Z,979.32
2018-03-07T09:02:49.594Z,979.24
2018-03-07T09:03:59.656Z,979.28
2018-03-07T09:05:09.725Z,979.34
2018-03-07T09:06:19.279Z,979.36
2018-03-07T09:07:29.087Z,979.39
2018-03-07T09:08:39.142Z,979.35
2018-03-07T09:09:49.201Z,979.36
2018-03-07T09:10:59.285Z,979.55
2018-03-07T09:12:09.359Z,979.42
2018-03-07T09:13:19.164Z,979.33
2018-03-07T09:14:29.236Z,979.42
2018-03-07T09:15:39.295Z,979.47
2018-03-07T09:16:49.113Z,979.49
2018-03-07T09:17:58.913Z,979.39
2018-03-07T09:19:08.968Z,979.48
2018-03-07T09:20:19.030Z,979.57
2018-03-07T09:21:29.152Z,979.5
2018-03-07T09:22:39.221Z,979.38
2018-03-07T09:23:49.290Z,979.56
2018-03-07T09:24:59.352Z,979.61
2018-03-07T09:26:09.423Z,979.49
2018-03-07T09:27:19.495Z,979.45
2018-03-07T09:28:29.299Z,979.42
2018-03-07T09:29:39.366Z,979.43
2018-03-07T09:30:49.442Z,979.54
2018-03-07T09:31:59.518Z,979.67
2018-03-07T09:33:09.583Z,979.65
2018-03-07T09:34:19.655Z,979.61
2018-03-07T09:35:29.723Z,979.56
2018-03-07T09:36:39.834Z,979.57
2018-03-07T09:37:49.625Z,979.57
2018-03-07T09:38:59.682Z,979.6
2018-03-07T09:40:09.761Z,979.61
2018-03-07T09:41:19.552Z,979.63
2018-03-07T09:42:29.622Z,979.65
2018-03-07T09:43:39.429Z,979.64
2018-03-07T09:44:49.225Z,979.63
2018-03-07T09:45:59.318Z,979.62
2018-03-07T09:47:09.116Z,979.67
2018-03-07T09:48:19.204Z,979.66
2018-03-07T09:49:29.705Z,979.7
2018-03-07T09:50:39.766Z,979.66
2018-03-07T09:51:49.839Z,979.68
2018-03-07T09:52:59.655Z,979.7
2018-03-07T09:54:09.720Z,979.75
2018-03-07T09:55:19.522Z,979.71
2018-03-07T09:56:29.412Z,979.76
2018-03-07T09:57:39.271Z,979.75
2018-03-07T09:58:48.803Z,979.76
2018-03-07T09:59:58.879Z,979.76
2018-03-07T10:01:08.680Z,979.82
2018-03-07T10:02:18.494Z,979.77
2018-03-07T10:03:28.034Z,979.81
2018-03-07T10:04:37.856Z,979.81
2018-03-07T10:05:47.660Z,979.8
2018-03-07T10:06:57.724Z,979.75
2018-03-07T10:08:08.042Z,979.77
2018-03-07T10:09:18.124Z,979.78
2018-03-07T10:10:28.206Z,979.79
2018-03-07T10:11:38.271Z,979.81
2018-03-07T10:12:48.346Z,979.8
2018-03-07T10:13:58.423Z,979.87
2018-03-07T10:15:08.303Z,979.89
2018-03-07T10:16:18.112Z,979.85
2018-03-07T10:17:27.723Z,979.84
2018-03-07T10:18:37.768Z,979.85
2018-03-07T10:19:47.908Z,979.8
2018-03-07T10:20:57.751Z,979.79
2018-03-07T10:22:07.887Z,979.78
2018-03-07T10:23:17.701Z,979.79
2018-03-07T10:24:27.504Z,979.82
2018-03-07T10:25:37.103Z,979.81
2018-03-07T10:26:47.185Z,979.84
2018-03-07T10:27:56.733Z,979.85
2018-03-07T10:29:06.560Z,979.9
2018-03-07T10:30:16.118Z,979.85
2018-03-07T10:31:25.716Z,979.82
2018-03-07T10:32:35.811Z,979.86
2018-03-07T10:33:45.622Z,979.89
2018-03-07T10:34:55.677Z,979.9
2018-03-07T10:36:05.214Z,979.91
2018-03-07T10:37:15.290Z,979.88
2018-03-07T10:38:25.359Z,979.89
2018-03-07T10:39:35.434Z,979.85
2018-03-07T10:40:45.592Z,979.89
2018-03-07T10:41:55.668Z,979.82
2018-03-07T10:43:05.784Z,979.86
2018-03-07T10:44:15.603Z,979.83
2018-03-07T10:45:25.677Z,979.89
2018-03-07T10:46:35.833Z,979.88
2018-03-07T10:47:45.997Z,979.9
2018-03-07T10:48:55.825Z,979.87
2018-03-07T10:50:05.903Z,979.91
2018-03-07T10:51:15.792Z,979.94
2018-03-07T10:52:25.347Z,979.92
2018-03-07T10:53:35.158Z,979.84
2018-03-07T10:54:45.040Z,979.93
2018-03-07T10:55:54.315Z,979.92
2018-03-07T10:57:04.387Z,979.9
2018-03-07T10:58:13.957Z,979.87
2018-03-07T10:59:24.021Z,979.91
2018-03-07T11:00:34.134Z,979.9
2018-03-07T11:01:44.197Z,979.85
2018-03-07T11:02:53.750Z,979.84
2018-03-07T11:04:03.821Z,979.81
2018-03-07T11:05:13.618Z,979.82
2018-03-07T11:06:23.741Z,979.81
2018-03-07T11:07:33.813Z,979.78
2018-03-07T11:08:43.892Z,979.83
2018-03-07T11:09:53.985Z,979.85
2018-03-07T11:11:03.786Z,979.86
2018-03-07T11:12:13.645Z,979.86
2018-03-07T11:13:23.714Z,979.81
2018-03-07T11:14:33.555Z,979.85
2018-03-07T11:15:43.708Z,979.85
2018-03-07T11:16:53.780Z,979.85
2018-03-07T11:18:03.912Z,979.9
2018-03-07T11:19:13.972Z,979.9
2018-03-07T11:20:24.057Z,979.93
2018-03-07T11:21:34.131Z,979.95
2018-03-07T11:22:44.215Z,979.93
2018-03-07T11:23:54.274Z,979.94
2018-03-07T11:25:04.353Z,979.96
2018-03-07T11:26:14.432Z,980.01
2018-03-07T11:27:24.501Z,980
2018-03-07T11:28:34.636Z,980.01
2018-03-07T11:29:44.846Z,980.1
2018-03-07T11:30:54.927Z,980.09
2018-03-07T11:32:04.751Z,980.1
2018-03-07T11:33:14.838Z,980.12
2018-03-07T11:34:24.922Z,980.1
2018-03-07T11:35:35.099Z,980.12
2018-03-07T11:36:45.185Z,980.17
2018-03-07T11:37:54.717Z,980.15
2018-03-07T11:39:04.526Z,980.19
2018-03-07T11:40:14.634Z,980.18
2018-03-07T11:41:24.695Z,980.17
2018-03-07T11:42:34.235Z,980.17
2018-03-07T11:43:44.309Z,980.18
2018-03-07T11:44:54.107Z,980.24
2018-03-07T11:46:04.408Z,980.21
2018-03-07T11:47:14.235Z,980.22
2018-03-07T11:48:23.787Z,980.16
2018-03-07T11:49:33.886Z,980.16
2018-03-07T11:50:43.948Z,980.12
2018-03-07T11:51:53.770Z,980.13
2018-03-07T11:53:03.836Z,980.09
2018-03-07T11:54:13.920Z,980.1
2018-03-07T11:55:24.009Z,980.06
2018-03-07T11:56:34.096Z,980.09
2018-03-07T11:57:44.177Z,980.12
2018-03-07T11:58:54.013Z,980.12
2018-03-07T12:00:03.565Z,980.12
2018-03-07T12:01:13.653Z,980.12
2018-03-07T12:02:23.725Z,980.19
2018-03-07T12:03:33.526Z,980.25
2018-03-07T12:04:43.394Z,980.16
2018-03-07T12:05:52.976Z,980.17
2018-03-07T12:07:03.035Z,980.22
2018-03-07T12:08:13.247Z,980.17
2018-03-07T12:09:23.310Z,980.13
2018-03-07T12:10:33.450Z,980.18
2018-03-07T12:11:43.543Z,980.19
2018-03-07T12:12:53.638Z,980.24
2018-03-07T12:14:03.482Z,980.2
2018-03-07T12:15:13.317Z,980.17
2018-03-07T12:16:23.389Z,980.25
2018-03-07T12:17:33.486Z,980.23
2018-03-07T12:18:43.406Z,980.29
2018-03-07T12:19:53.490Z,980.22
2018-03-07T12:21:03.593Z,980.21
2018-03-07T12:22:13.663Z,980.21
2018-03-07T12:23:23.739Z,980.24
2018-03-07T12:24:33.832Z,980.21
2018-03-07T12:25:43.926Z,980.24
2018-03-07T12:26:53.751Z,980.18
2018-03-07T12:28:03.302Z,980.24
2018-03-07T12:29:13.128Z,980.2
2018-03-07T12:30:23.199Z,980.24
2018-03-07T12:31:33.255Z,980.18
2018-03-07T12:32:43.066Z,980.21
2018-03-07T12:33:53.032Z,980.27
2018-03-07T12:35:02.843Z,980.19
2018-03-07T12:36:12.929Z,980.27
2018-03-07T12:37:23.015Z,980.28
2018-03-07T12:38:33.064Z,980.23
2018-03-07T12:39:43.181Z,980.24
2018-03-07T12:40:52.728Z,980.29
2018-03-07T12:42:02.840Z,980.3
2018-03-07T12:43:12.924Z,980.3
2018-03-07T12:44:22.994Z,980.29
2018-03-07T12:45:32.853Z,980.25
2018-03-07T12:46:42.676Z,980.24
2018-03-07T12:47:52.223Z,980.28
2018-03-07T12:49:02.050Z,980.28
2018-03-07T12:50:11.591Z,980.29
2018-03-07T12:51:21.708Z,980.25
2018-03-07T12:52:31.796Z,980.29
2018-03-07T12:53:41.601Z,980.35
2018-03-07T12:54:51.399Z,980.37
2018-03-07T12:56:01.195Z,980.36
2018-03-07T12:57:11.062Z,980.4
2018-03-07T12:58:21.156Z,980.41
2018-03-07T12:59:31.268Z,980.41
2018-03-07T13:00:41.373Z,980.4
2018-03-07T13:01:51.478Z,980.37
2018-03-07T13:03:01.605Z,980.43
2018-03-07T13:04:11.703Z,980.39
2018-03-07T13:05:21.508Z,980.36
2018-03-07T13:06:31.610Z,980.36
2018-03-07T13:07:41.692Z,980.36
2018-03-07T13:08:51.829Z,980.45
2018-03-07T13:10:01.647Z,980.4
2018-03-07T13:11:11.478Z,980.45
2018-03-07T13:12:21.567Z,980.37
2018-03-07T13:13:31.667Z,980.45
2018-03-07T13:14:41.818Z,980.47
2018-03-07T13:15:51.907Z,980.49
2018-03-07T13:17:01.788Z,980.42
2018-03-07T13:18:11.889Z,980.42
2018-03-07T13:19:21.698Z,980.49
2018-03-07T13:20:31.764Z,980.44
2018-03-07T13:21:41.836Z,980.45
2018-03-07T13:22:51.668Z,980.45
2018-03-07T13:24:01.749Z,980.48
2018-03-07T13:25:11.306Z,980.52
2018-03-07T13:26:21.456Z,980.49
2018-03-07T13:27:31.528Z,980.43
2018-03-07T13:28:41.592Z,980.4
2018-03-07T13:29:51.770Z,980.43
2018-03-07T13:31:01.888Z,980.47
2018-03-07T13:32:11.689Z,980.38
2018-03-07T13:33:21.505Z,980.46
2018-03-07T13:34:31.065Z,980.48
2018-03-07T13:35:40.888Z,980.39
2018-03-07T13:36:50.963Z,980.42
2018-03-07T13:38:00.796Z,980.44
2018-03-07T13:39:10.584Z,980.43
2018-03-07T13:40:20.665Z,980.51
2018-03-07T13:41:30.475Z,980.53
2018-03-07T13:42:40.355Z,980.53
2018-03-07T13:43:50.177Z,980.56
2018-03-07T13:45:00.272Z,980.54
2018-03-07T13:46:10.066Z,980.52
2018-03-07T13:47:19.864Z,980.54
2018-03-07T13:48:29.934Z,980.48
2018-03-07T13:49:39.800Z,980.55
2018-03-07T13:50:49.694Z,980.54
2018-03-07T13:51:59.832Z,980.57
2018-03-07T13:53:09.905Z,980.57
2018-03-07T13:54:19.985Z,980.61
2018-03-07T13:55:30.119Z,980.58
2018-03-07T13:56:39.926Z,980.6
2018-03-07T13:57:49.755Z,980.66
2018-03-07T13:58:59.295Z,980.61
2018-03-07T14:00:08.597Z,980.59
2018-03-07T14:01:18.476Z,980.67
2018-03-07T14:02:28.576Z,980.65
2018-03-07T14:03:38.386Z,980.61
2018-03-07T14:04:48.443Z,980.65
2018-03-07T14:05:58.510Z,980.68
2018-03-07T14:07:08.352Z,980.69
2018-03-07T14:08:18.173Z,980.64
2018-03-07T14:09:28.246Z,980.68
2018-03-07T14:10:37.802Z,980.71
2018-03-07T14:11:47.606Z,980.72
2018-03-07T14:12:57.406Z,980.72
2018-03-07T14:14:07.224Z,980.75
2018-03-07T14:15:17.305Z,980.76
2018-03-07T14:16:27.376Z,980.71
2018-03-07T14:17:37.467Z,980.71
2018-03-07T14:18:47.316Z,980.71
2018-03-07T14:19:57.386Z,980.72
2018-03-07T14:21:07.462Z,980.76
2018-03-07T14:22:17.539Z,980.75
2018-03-07T14:23:27.614Z,980.77
2018-03-07T14:24:37.419Z,980.75
2018-03-07T14:25:46.984Z,980.71
2018-03-07T14:26:57.047Z,980.76
2018-03-07T14:28:07.116Z,980.75
2018-03-07T14:29:16.963Z,980.74
2018-03-07T14:30:26.783Z,980.75
2018-03-07T14:31:36.597Z,980.8
2018-03-07T14:32:46.416Z,980.87
2018-03-07T14:33:55.981Z,980.84
2018-03-07T14:35:05.824Z,980.83
2018-03-07T14:36:15.632Z,980.81
2018-03-07T14:37:24.638Z,980.79
2018-03-07T14:38:34.444Z,980.83
2018-03-07T14:39:43.742Z,980.83
2018-03-07T14:40:53.337Z,980.91
2018-03-07T14:42:03.157Z,980.87
2018-03-07T14:43:13.265Z,980.9
2018-03-07T14:44:22.809Z,980.83
2018-03-07T14:45:32.871Z,980.84
2018-03-07T14:46:42.973Z,980.92
2018-03-07T14:47:53.064Z,980.89
2018-03-07T14:49:03.211Z,980.88
2018-03-07T14:50:13.308Z,980.88
2018-03-07T14:51:22.849Z,980.91
2018-03-07T14:52:32.935Z,980.87
2018-03-07T14:53:42.922Z,980.81
2018-03-07T14:54:52.723Z,980.92
2018-03-07T14:56:02.621Z,980.91
2018-03-07T14:57:12.710Z,980.92
2018-03-07T14:58:22.503Z,980.97
2018-03-07T14:59:32.312Z,980.97
2018-03-07T15:00:41.873Z,980.98
2018-03-07T15:01:51.673Z,980.96
2018-03-07T15:03:01.223Z,980.98
2018-03-07T15:04:11.358Z,981.04
2018-03-07T15:05:21.424Z,981.06